Time;durP1;ratioP1;P1;durP2;ratioP2;P2;SDS_P1;SDS_P2;PMS_P1;PMS_P2;Temp;Humidity;BMP_temperature;BMP_pressure;BME280_temperature;BME280_humidity;BME280_pressure;Samples;Min_cycle;Max_cycle;Signal;HPM_P1;HPM_P2
2020/12/18 00:00:57;;;;;;;5.00;1.77;;;;;;;12.65;76.09;98881.13;5068048;28;20123;-83
2020/12/18 00:03:23;;;;;;;6.18;1.63;;;;;;;12.53;76.36;98861.34;5084088;28;20024;-80
2020/12/18 00:05:49;;;;;;;11.25;1.60;;;;;;;12.76;75.67;98852.81;5086104;28;20122;-82
2020/12/18 00:08:15;;;;;;;6.18;1.63;;;;;;;12.57;76.36;98800.09;5086682;28;20120;-83
2020/12/18 00:10:41;;;;;;;9.27;1.60;;;;;;;12.87;75.29;98810.56;5062379;28;20075;-85
2020/12/18 00:13:08;;;;;;;11.60;2.25;;;;;;;12.51;76.28;98846.59;5085229;28;20028;-83
2020/12/18 00:15:34;;;;;;;11.80;2.33;;;;;;;12.63;76.38;98854.94;5067989;28;20050;-84
2020/12/18 00:18:00;;;;;;;13.30;2.13;;;;;;;12.78;75.37;98843.16;5084468;28;20028;-84
2020/12/18 00:20:26;;;;;;;11.70;2.10;;;;;;;13.05;74.48;98844.94;5085581;28;20070;-83
2020/12/18 00:22:52;;;;;;;8.57;2.08;;;;;;;12.94;75.14;98859.28;5073258;28;20036;-85
2020/12/18 00:25:18;;;;;;;8.85;1.80;;;;;;;13.01;74.53;98850.31;5070138;28;20036;-85
2020/12/18 00:27:44;;;;;;;6.70;1.90;;;;;;;12.81;74.94;98858.78;5075540;28;20128;-86
2020/12/18 00:30:13;;;;;;;9.63;1.85;;;;;;;12.83;74.82;98856.13;5093267;27;20052;-85
2020/12/18 00:32:40;;;;;;;6.22;1.67;;;;;;;13.36;73.19;98859.75;5091182;28;20061;-84
2020/12/18 00:35:09;;;;;;;9.82;1.80;;;;;;;13.04;74.24;98866.81;5068246;28;20043;-85
2020/12/18 00:37:35;;;;;;;10.35;2.40;;;;;;;13.19;73.91;98862.88;5081906;28;20081;-84
2020/12/18 00:40:01;;;;;;;7.53;1.80;;;;;;;13.26;73.72;98864.44;5082558;28;21031;-85
2020/12/18 00:42:30;;;;;;;7.82;1.90;;;;;;;12.81;74.64;98868.41;5091056;28;20036;-84
2020/12/18 00:44:56;;;;;;;6.70;1.40;;;;;;;12.75;75.32;98858.97;5090082;28;20058;-85
2020/12/18 00:47:25;;;;;;;7.47;1.60;;;;;;;12.95;74.77;98861.00;5069093;28;20390;-85
2020/12/18 00:49:51;;;;;;;4.10;1.10;;;;;;;13.08;74.24;98855.34;5085086;28;20442;-83
2020/12/18 00:52:17;;;;;;;5.53;1.35;;;;;;;13.34;72.83;98861.53;5067484;28;20716;-84
2020/12/18 00:54:43;;;;;;;5.32;1.25;;;;;;;13.35;73.30;98855.41;5084816;28;20340;-84
2020/12/18 00:57:09;;;;;;;4.60;1.98;;;;;;;13.49;72.74;98856.69;5070413;28;20047;-84
2020/12/18 00:59:34;;;;;;;3.70;0.90;;;;;;;13.04;74.25;98852.88;5089298;28;20024;-84
2020/12/18 01:02:03;;;;;;;2.83;0.93;;;;;;;13.26;73.86;98856.56;5067151;28;20119;-85
2020/12/18 01:04:28;;;;;;;4.20;0.80;;;;;;;13.10;73.86;98852.66;5085884;28;20060;-84
2020/12/18 01:06:54;;;;;;;5.90;1.50;;;;;;;13.35;73.35;98858.03;5083213;28;20066;-84
2020/12/18 01:09:24;;;;;;;3.63;1.00;;;;;;;13.44;72.82;98861.22;5070689;28;20059;-84
2020/12/18 01:11:50;;;;;;;2.75;1.45;;;;;;;13.10;74.34;98863.13;5065799;28;20036;-84
2020/12/18 01:14:16;;;;;;;4.22;1.33;;;;;;;13.33;73.62;98846.75;5081196;28;20028;-83
2020/12/18 01:16:42;;;;;;;3.60;1.38;;;;;;;13.33;73.76;98849.38;5062826;28;20032;-85
2020/12/18 01:19:08;;;;;;;4.30;1.88;;;;;;;12.89;75.54;98856.81;5100636;28;20031;-83
2020/12/18 01:21:36;;;;;;;7.65;1.77;;;;;;;13.30;74.01;98849.44;5085207;28;20032;-82
2020/12/18 01:24:02;;;;;;;9.77;1.77;;;;;;;13.39;73.85;98846.53;5085267;28;20040;-84
2020/12/18 01:26:28;;;;;;;7.60;1.90;;;;;;;13.62;73.42;98837.91;5090805;28;20027;-84
2020/12/18 01:28:54;;;;;;;8.52;3.03;;;;;;;13.34;74.58;98848.44;5087535;28;20398;-85
2020/12/18 01:31:20;;;;;;;7.93;2.58;;;;;;;13.64;73.99;98847.44;5091999;28;20062;-85
2020/12/18 01:33:45;;;;;;;6.72;2.42;;;;;;;13.39;74.31;98838.66;5083132;28;20056;-84
2020/12/18 01:36:11;;;;;;;9.40;2.03;;;;;;;13.45;74.20;98841.94;5087048;28;20031;-85
2020/12/18 01:38:36;;;;;;;5.68;2.90;;;;;;;13.29;74.84;98835.47;5086764;28;20024;-85
2020/12/18 01:41:02;;;;;;;3.80;1.73;;;;;;;13.61;74.10;98841.44;5089885;28;20176;-85
2020/12/18 01:43:28;;;;;;;3.72;2.08;;;;;;;13.45;74.61;98834.06;5086729;28;20036;-85
2020/12/18 01:46:03;;;;;;;5.93;2.72;;;;;;;13.74;73.52;98830.47;5087304;28;20032;-85
2020/12/18 01:48:29;;;;;;;5.15;2.30;;;;;;;13.65;73.96;98832.56;5082158;28;20147;-84
2020/12/18 01:50:55;;;;;;;7.28;2.33;;;;;;;13.48;74.55;98849.69;5062650;28;20466;-84
2020/12/18 01:53:21;;;;;;;8.15;2.22;;;;;;;13.49;74.52;98834.81;5085842;28;20028;-85
2020/12/18 01:55:49;;;;;;;4.80;2.22;;;;;;;14.10;72.19;98843.25;5064282;28;20067;-85
2020/12/18 01:58:15;;;;;;;3.38;1.55;;;;;;;13.33;74.76;98839.69;5079175;28;20032;-85
2020/12/18 02:00:43;;;;;;;6.30;2.30;;;;;;;13.62;74.24;98833.50;5089888;28;20020;-85
2020/12/18 02:03:09;;;;;;;3.10;2.20;;;;;;;13.64;73.59;98836.94;5067463;28;20079;-85
2020/12/18 02:05:35;;;;;;;5.43;2.00;;;;;;;13.97;72.73;98840.19;5070393;28;20074;-85
2020/12/18 02:08:03;;;;;;;9.05;2.05;;;;;;;13.73;73.44;98848.91;5088522;28;20036;-85
2020/12/18 02:10:29;;;;;;;4.45;1.60;;;;;;;13.94;72.78;98848.19;5085415;28;20028;-84
2020/12/18 02:12:56;;;;;;;6.60;1.38;;;;;;;13.81;73.28;98850.34;5084759;28;20580;-84
2020/12/18 02:15:23;;;;;;;5.82;1.35;;;;;;;14.15;71.31;98843.97;5084363;28;20185;-84
2020/12/18 02:17:49;;;;;;;8.10;1.30;;;;;;;13.61;74.27;98850.19;5082039;28;20097;-85
2020/12/18 02:20:18;;;;;;;5.38;1.08;;;;;;;13.58;74.46;98849.41;5060714;28;20035;-84
2020/12/18 02:22:44;;;;;;;5.35;1.23;;;;;;;13.88;73.53;98853.63;5085535;28;20032;-85
2020/12/18 02:25:12;;;;;;;4.30;1.67;;;;;;;14.08;72.81;98855.56;5079292;28;20129;-85
2020/12/18 02:27:39;;;;;;;3.22;1.38;;;;;;;13.88;73.02;98856.25;5065555;28;20043;-84
2020/12/18 02:30:06;;;;;;;5.07;1.48;;;;;;;13.84;74.10;98842.38;5079367;28;20068;-84
2020/12/18 02:32:32;;;;;;;3.10;1.17;;;;;;;13.66;73.83;98855.28;5081226;28;20077;-84
2020/12/18 02:34:58;;;;;;;4.50;1.20;;;;;;;14.12;73.08;98852.78;5083835;28;20032;-84
2020/12/18 02:37:23;;;;;;;4.00;1.30;;;;;;;14.11;72.89;98858.94;5087849;28;20040;-84
2020/12/18 02:39:56;;;;;;;4.35;1.25;;;;;;;14.42;72.08;98844.75;5083995;28;20147;-85
2020/12/18 02:42:23;;;;;;;2.38;1.27;;;;;;;14.23;72.74;98853.28;5067036;28;20115;-83
2020/12/18 02:44:53;;;;;;;5.53;2.05;;;;;;;14.05;73.21;98840.78;5089039;28;20441;-83
2020/12/18 02:47:19;;;;;;;5.93;1.30;;;;;;;14.16;72.40;98843.03;5070140;28;20020;-84
2020/12/18 02:49:45;;;;;;;2.78;1.13;;;;;;;14.13;72.90;98846.63;5088053;28;20047;-83
2020/12/18 02:52:11;;;;;;;3.55;1.25;;;;;;;13.66;75.38;98837.75;5086048;28;20122;-84
2020/12/18 02:54:36;;;;;;;3.00;1.13;;;;;;;14.35;72.37;98844.94;5087948;28;20090;-83
2020/12/18 02:57:03;;;;;;;3.58;1.30;;;;;;;14.05;73.33;98843.44;5085105;28;20032;-84
2020/12/18 02:59:28;;;;;;;5.00;1.30;;;;;;;14.07;73.86;98832.84;5068469;28;20042;-83
2020/12/18 03:01:55;;;;;;;3.30;1.15;;;;;;;14.47;71.62;98827.06;5076589;28;20088;-83
2020/12/18 03:04:20;;;;;;;2.53;1.13;;;;;;;14.67;71.75;98829.81;5065475;28;20031;-83
2020/12/18 03:06:46;;;;;;;4.40;1.48;;;;;;;14.16;73.11;98814.13;5087101;28;20046;-83
2020/12/18 03:09:12;;;;;;;4.70;1.20;;;;;;;13.75;75.59;98818.22;5086487;28;20040;-85
2020/12/18 03:11:38;;;;;;;7.25;1.40;;;;;;;14.33;73.23;98817.88;5085364;28;20024;-85
2020/12/18 03:14:03;;;;;;;3.33;1.20;;;;;;;14.45;72.93;98818.34;5063825;28;20024;-85
2020/12/18 03:16:29;;;;;;;4.20;1.48;;;;;;;13.98;74.04;98816.50;5083256;28;20200;-84
2020/12/18 03:18:56;;;;;;;4.22;1.25;;;;;;;14.26;73.49;98811.13;5067776;28;20340;-84
2020/12/18 03:21:22;;;;;;;4.07;1.52;;;;;;;14.31;72.56;98822.31;5079147;28;20036;-83
2020/12/18 03:23:48;;;;;;;3.63;1.80;;;;;;;14.60;71.95;98807.28;5077751;28;20062;-81
2020/12/18 03:26:14;;;;;;;2.58;1.50;;;;;;;14.53;72.17;98805.81;5078965;28;20119;-83
2020/12/18 03:28:40;;;;;;;4.82;1.08;;;;;;;14.14;73.58;98805.47;5088264;28;20042;-83
2020/12/18 03:31:09;;;;;;;1.40;1.10;;;;;;;14.15;73.50;98796.69;5071322;28;20027;-84
2020/12/18 03:33:35;;;;;;;3.85;1.13;;;;;;;14.52;72.82;98798.84;5062909;28;20036;-83
2020/12/18 03:36:01;;;;;;;1.88;1.40;;;;;;;14.53;72.13;98793.50;5079548;28;20039;-84
2020/12/18 03:38:27;;;;;;;6.93;1.50;;;;;;;14.36;73.38;98785.41;5079490;28;20032;-84
2020/12/18 03:40:52;;;;;;;2.28;1.10;;;;;;;14.16;73.66;98779.97;5082986;28;20032;-83
2020/12/18 03:43:18;;;;;;;2.55;1.15;;;;;;;14.11;73.90;98792.41;5080160;28;20036;-84
2020/12/18 03:45:44;;;;;;;2.50;1.30;;;;;;;14.52;72.96;98772.56;5080621;28;20028;-84
2020/12/18 03:48:10;;;;;;;4.10;1.20;;;;;;;14.31;73.09;98775.03;5080197;28;20155;-84
2020/12/18 03:50:35;;;;;;;3.05;1.70;;;;;;;14.39;73.08;98761.63;5086051;28;20031;-83
2020/12/18 03:53:01;;;;;;;4.90;1.92;;;;;;;14.49;73.04;98751.63;5086630;28;20020;-84
2020/12/18 03:55:27;;;;;;;2.20;1.45;;;;;;;14.11;74.55;98740.75;5082926;28;20036;-84
2020/12/18 03:57:52;;;;;;;2.40;1.45;;;;;;;14.17;73.81;98740.53;5084155;28;20390;-84
2020/12/18 04:00:21;;;;;;;3.75;1.88;;;;;;;13.97;74.67;98743.03;5085124;28;20028;-84
2020/12/18 04:02:50;;;;;;;7.30;2.13;;;;;;;14.23;74.60;98740.31;5066054;28;20343;-84
2020/12/18 04:05:16;;;;;;;4.93;2.08;;;;;;;14.11;75.04;98739.88;5089904;28;20032;-84
2020/12/18 04:07:42;;;;;;;2.05;1.80;;;;;;;14.29;74.09;98737.44;5084017;28;20024;-84
2020/12/18 04:10:07;;;;;;;4.72;1.77;;;;;;;14.27;74.48;98734.03;5084168;28;20043;-84
2020/12/18 04:12:33;;;;;;;2.45;1.58;;;;;;;14.15;74.76;98744.16;5087015;28;20107;-84
2020/12/18 04:14:59;;;;;;;5.85;2.55;;;;;;;14.40;73.95;98732.66;5087758;28;20028;-85
2020/12/18 04:17:24;;;;;;;3.50;1.75;;;;;;;14.25;74.50;98721.84;5071503;28;20389;-84
2020/12/18 04:19:50;;;;;;;2.40;1.73;;;;;;;14.72;72.43;98727.97;5083889;28;20042;-83
2020/12/18 04:22:15;;;;;;;3.72;1.88;;;;;;;14.48;73.47;98721.88;5082203;28;20043;-83
2020/12/18 04:24:41;;;;;;;2.50;1.60;;;;;;;14.27;74.16;98715.63;5080202;28;20187;-82
2020/12/18 04:27:06;;;;;;;5.72;1.80;;;;;;;14.59;72.87;98711.78;5086758;28;20159;-83
2020/12/18 04:29:32;;;;;;;4.00;1.90;;;;;;;14.32;73.82;98716.31;5069818;28;20040;-83
2020/12/18 04:31:59;;;;;;;3.10;1.80;;;;;;;14.44;73.30;98722.03;5082175;28;20031;-83
2020/12/18 04:34:24;;;;;;;2.97;1.55;;;;;;;14.75;72.35;98726.06;5077715;28;20108;-83
2020/12/18 04:36:50;;;;;;;5.15;2.08;;;;;;;14.26;74.05;98734.06;5081250;28;20024;-83
2020/12/18 04:39:15;;;;;;;3.28;1.77;;;;;;;14.59;72.82;98739.84;5083988;28;20782;-83
2020/12/18 04:41:41;;;;;;;5.10;1.90;;;;;;;14.80;72.05;98739.88;5067674;28;20111;-83
2020/12/18 04:44:08;;;;;;;3.15;1.63;;;;;;;14.69;72.35;98738.56;5061253;28;20032;-84
2020/12/18 04:46:36;;;;;;;5.82;2.00;;;;;;;14.93;71.33;98731.47;5086288;28;20040;-84
2020/12/18 04:49:02;;;;;;;4.22;1.92;;;;;;;14.82;71.38;98745.06;5083613;28;20131;-84
2020/12/18 04:51:28;;;;;;;5.65;1.85;;;;;;;14.75;72.00;98762.00;5086806;28;20036;-83
2020/12/18 04:53:56;;;;;;;5.13;1.70;;;;;;;14.58;72.54;98770.53;5091089;28;20027;-83
2020/12/18 04:56:24;;;;;;;2.88;1.70;;;;;;;14.54;72.68;98766.31;5084519;28;20130;-83
2020/12/18 04:58:54;;;;;;;3.10;1.75;;;;;;;14.80;72.32;98770.56;5087059;28;20024;-84
2020/12/18 05:01:25;;;;;;;3.13;1.70;;;;;;;14.43;72.78;98771.13;5082083;28;20038;-83
2020/12/18 05:03:55;;;;;;;4.43;1.65;;;;;;;14.39;73.39;98767.75;5089310;28;20039;-82
2020/12/18 05:06:24;;;;;;;4.28;1.50;;;;;;;14.54;72.74;98760.19;5061044;28;20044;-82
2020/12/18 05:08:49;;;;;;;4.20;1.38;;;;;;;14.88;71.48;98754.47;5041054;28;20033;-82
2020/12/18 05:11:19;;;;;;;3.42;1.38;;;;;;;14.94;71.38;98760.38;5027709;28;20604;-82
2020/12/18 05:13:46;;;;;;;4.80;1.50;;;;;;;14.80;71.97;98752.16;5040434;28;20750;-82
2020/12/18 05:16:12;;;;;;;5.40;1.17;;;;;;;14.47;73.22;98763.97;5048273;28;20084;-82
2020/12/18 05:18:38;;;;;;;4.13;1.20;;;;;;;14.73;72.69;98758.56;5045795;28;20064;-82
2020/12/18 05:21:05;;;;;;;3.85;1.50;;;;;;;14.24;74.37;98760.44;5029841;28;20044;-82
2020/12/18 05:23:39;;;;;;;3.60;0.98;;;;;;;14.56;73.20;98751.34;5046783;28;20045;-82
2020/12/18 05:26:06;;;;;;;4.70;1.25;;;;;;;14.58;73.39;98757.38;5043775;28;20181;-82
2020/12/18 05:28:50;;;;;;;2.33;1.23;;;;;;;14.75;72.66;98752.34;5066765;28;20035;-82
2020/12/18 05:31:19;;;;;;;5.88;1.27;;;;;;;14.01;74.35;98744.63;5046715;28;20136;-82
2020/12/18 05:33:48;;;;;;;6.22;1.30;;;;;;;14.24;74.09;98735.91;5027875;28;20433;-82
2020/12/18 05:36:14;;;;;;;3.15;1.15;;;;;;;14.29;73.91;98737.44;5050348;28;20059;-83
2020/12/18 05:38:41;;;;;;;3.83;1.15;;;;;;;14.14;75.08;98726.66;5083301;28;20864;-82
2020/12/18 05:41:09;;;;;;;3.53;1.30;;;;;;;14.75;72.99;98720.78;5082798;28;20061;-83
2020/12/18 05:43:42;;;;;;;4.65;1.33;;;;;;;14.40;73.63;98726.56;5082499;28;20085;-82
2020/12/18 05:46:16;;;;;;;5.32;1.00;;;;;;;14.44;73.58;98730.78;5071138;28;20120;-82
2020/12/18 05:49:02;;;;;;;1.08;1.00;;;;;;;14.63;72.76;98721.25;5084771;28;20036;-82
2020/12/18 05:51:30;;;;;;;4.43;1.30;;;;;;;14.69;72.64;98730.69;5078410;28;20051;-82
2020/12/18 05:54:16;;;;;;;2.45;0.98;;;;;;;14.68;72.85;98729.81;5066744;28;20039;-82
2020/12/18 05:56:50;;;;;;;2.97;0.80;;;;;;;14.89;70.90;98740.41;5086427;28;20039;-82
2020/12/18 05:59:21;;;;;;;2.53;0.80;;;;;;;14.59;72.98;98743.31;5076842;28;20027;-82
2020/12/18 06:01:47;;;;;;;3.22;0.75;;;;;;;14.72;72.23;98741.94;5085679;28;20717;-82
2020/12/18 06:04:18;;;;;;;2.17;1.00;;;;;;;14.72;72.35;98731.41;5081925;28;20047;-82
2020/12/18 06:32:31;;;;;;;1.92;0.77;;;;;;;14.75;72.30;98746.22;4945544;28;20059;-83
2020/12/18 06:35:26;;;;;;;0.82;0.60;;;;;;;15.25;70.65;98739.75;5078143;28;20073;-83
2020/12/18 06:37:51;;;;;;;4.38;1.00;;;;;;;14.71;72.87;98711.31;5080350;28;20054;-83
2020/12/18 06:40:28;;;;;;;7.18;1.20;;;;;;;15.17;71.61;98727.84;5073343;28;20041;-83
2020/12/18 06:42:56;;;;;;;3.42;1.20;;;;;;;14.78;72.85;98731.19;5082207;28;20032;-84
2020/12/18 06:45:22;;;;;;;5.70;1.67;;;;;;;14.96;72.76;98724.34;5078431;28;20108;-83
2020/12/18 06:47:47;;;;;;;3.53;0.90;;;;;;;14.65;73.72;98723.84;5087688;28;20519;-83
2020/12/18 06:50:16;;;;;;;7.88;1.08;;;;;;;14.96;71.82;98713.84;5084426;28;20112;-83
2020/12/18 06:52:48;;;;;;;4.20;1.40;;;;;;;14.81;72.52;98712.66;5080789;28;20170;-83
2020/12/18 06:55:32;;;;;;;2.85;1.13;;;;;;;14.74;73.19;98713.81;5079083;28;20126;-82
2020/12/18 06:58:10;;;;;;;0.90;0.82;;;;;;;14.72;72.65;98701.66;5077462;28;20024;-83
2020/12/18 07:00:42;;;;;;;1.90;0.90;;;;;;;14.75;73.05;98704.16;5086617;28;20028;-83
2020/12/18 07:03:08;;;;;;;3.20;1.00;;;;;;;14.52;73.76;98694.56;5086099;28;20178;-82
2020/12/18 07:05:42;;;;;;;7.28;1.60;;;;;;;14.90;72.87;98703.56;5062992;28;20044;-86
2020/12/18 07:08:10;;;;;;;2.47;1.20;;;;;;;14.76;73.53;98688.34;5054789;28;20043;-86
2020/12/18 07:10:40;;;;;;;1.95;1.52;;;;;;;14.87;73.04;98694.94;5084360;28;20490;-87
2020/12/18 07:13:08;;;;;;;3.80;1.67;;;;;;;14.78;73.53;98681.22;5084274;28;20028;-84
2020/12/18 07:15:43;;;;;;;3.03;2.10;;;;;;;14.77;73.38;98676.03;5082204;28;20056;-85
2020/12/18 07:18:29;;;;;;;4.53;2.10;;;;;;;14.88;72.27;98673.81;5086888;28;20073;-84
2020/12/18 07:20:59;;;;;;;5.00;2.15;;;;;;;14.75;73.41;98668.22;5080280;28;20115;-84
2020/12/18 07:23:29;;;;;;;5.32;2.33;;;;;;;14.83;72.74;98679.25;5082237;28;20098;-85
2020/12/18 07:25:59;;;;;;;3.45;2.00;;;;;;;14.91;72.82;98676.34;5087751;28;20028;-85
2020/12/18 07:28:27;;;;;;;3.83;2.33;;;;;;;14.75;74.05;98672.63;5087008;28;20077;-86
2020/12/18 07:30:55;;;;;;;2.55;1.80;;;;;;;15.10;72.46;98673.81;5068797;28;20398;-86
2020/12/18 07:33:26;;;;;;;3.35;2.05;;;;;;;14.90;72.45;98677.25;5086192;28;20036;-85
2020/12/18 07:35:54;;;;;;;2.88;2.10;;;;;;;14.55;74.05;98665.53;5080917;28;20100;-85
2020/12/18 07:38:27;;;;;;;2.05;1.85;;;;;;;14.78;72.91;98661.97;5092498;28;20040;-85
2020/12/18 07:40:57;;;;;;;2.50;1.88;;;;;;;15.23;71.64;98669.72;5083234;28;20426;-86
2020/12/18 07:43:27;;;;;;;2.33;1.80;;;;;;;14.96;72.29;98679.63;5081313;28;20067;-85
2020/12/18 07:45:55;;;;;;;2.60;2.10;;;;;;;14.87;72.89;98679.97;5074638;28;20781;-84
2020/12/18 07:48:26;;;;;;;1.95;1.85;;;;;;;14.47;74.89;98695.66;5085827;28;20028;-85
2020/12/18 07:51:19;;;;;;;2.05;1.80;;;;;;;15.09;72.16;98678.19;5061688;28;20191;-86
2020/12/18 07:53:52;;;;;;;1.88;1.77;;;;;;;14.91;72.77;98672.84;5074764;28;20059;-85
2020/12/18 07:56:20;;;;;;;1.90;1.50;;;;;;;14.64;73.62;98678.28;5093175;28;20538;-85
2020/12/18 07:59:08;;;;;;;3.05;1.40;;;;;;;14.49;75.14;98683.28;5090291;28;20123;-84
2020/12/18 08:01:35;;;;;;;3.38;1.10;;;;;;;15.02;72.78;98673.25;5085766;28;20028;-85
2020/12/18 08:04:09;;;;;;;3.45;1.75;;;;;;;14.90;72.82;98674.63;5088157;28;20382;-86
2020/12/18 08:06:39;;;;;;;1.55;1.30;;;;;;;14.32;74.96;98681.31;5072943;28;20031;-84
2020/12/18 08:09:07;;;;;;;2.05;1.75;;;;;;;14.17;76.14;98682.75;5084022;28;20104;-85
2020/12/18 08:11:45;;;;;;;2.75;1.40;;;;;;;14.59;74.28;98698.66;5069257;28;20032;-84
2020/12/18 08:14:12;;;;;;;1.73;1.63;;;;;;;14.55;74.82;98691.81;5083627;28;20047;-84
2020/12/18 08:16:38;;;;;;;5.38;1.60;;;;;;;14.84;73.26;98688.00;5086992;28;20043;-85
2020/12/18 08:19:12;;;;;;;1.73;1.20;;;;;;;14.30;74.90;98696.25;5069554;28;20368;-85
2020/12/18 08:21:46;;;;;;;1.27;1.20;;;;;;;14.69;74.18;98686.00;5080440;28;20032;-85
2020/12/18 08:24:25;;;;;;;2.03;1.10;;;;;;;14.59;74.48;98689.91;5080622;28;20035;-84
2020/12/18 08:27:02;;;;;;;1.50;1.40;;;;;;;14.70;73.86;98678.06;5069980;28;20036;-85
2020/12/18 08:29:31;;;;;;;1.15;1.05;;;;;;;14.61;73.99;98688.94;5065812;28;20119;-85
2020/12/18 08:32:00;;;;;;;3.38;1.05;;;;;;;14.63;73.51;98671.31;5082436;28;20119;-85
2020/12/18 08:34:34;;;;;;;4.22;0.88;;;;;;;14.75;72.92;98668.22;5082145;28;20462;-85
2020/12/18 08:37:02;;;;;;;3.75;1.10;;;;;;;14.81;73.20;98660.09;5071538;28;20054;-85
2020/12/18 08:39:31;;;;;;;3.28;1.20;;;;;;;14.30;74.57;98660.34;5073429;28;20109;-85
2020/12/18 08:41:59;;;;;;;1.48;1.20;;;;;;;14.61;73.74;98653.91;5074873;28;20055;-84
2020/12/18 08:44:45;;;;;;;3.38;1.70;;;;;;;14.79;73.50;98651.38;5068039;28;20028;-82
2020/12/18 08:47:17;;;;;;;3.70;2.15;;;;;;;14.77;73.21;98652.38;5085879;28;20056;-82
2020/12/18 08:49:43;;;;;;;3.22;2.25;;;;;;;14.89;73.09;98649.25;5084957;28;20028;-83
2020/12/18 08:52:09;;;;;;;4.47;2.60;;;;;;;14.64;73.68;98659.03;5018584;28;53281;-80
2020/12/18 08:54:40;;;;;;;5.13;3.95;;;;;;;14.52;75.23;98659.53;4994587;28;20045;-81
2020/12/18 08:57:25;;;;;;;4.13;3.10;;;;;;;14.59;74.94;98663.63;4984362;28;242349;-81
2020/12/18 08:59:58;;;;;;;4.03;3.25;;;;;;;14.64;75.25;98682.69;5047814;28;20029;-80
2020/12/18 09:02:32;;;;;;;3.33;3.03;;;;;;;14.49;74.96;98668.38;5052124;28;20113;-84
2020/12/18 09:05:29;;;;;;;3.72;2.63;;;;;;;14.68;75.14;98669.38;5052747;28;20078;-83
2020/12/18 09:08:07;;;;;;;3.65;2.50;;;;;;;14.35;76.48;98670.66;4942539;28;20146;-80
2020/12/18 09:10:40;;;;;;;2.72;1.70;;;;;;;14.74;74.26;98671.75;4947547;28;20090;-77
2020/12/18 09:13:15;;;;;;;3.42;1.48;;;;;;;14.53;75.17;98680.47;4936682;28;20091;-81
2020/12/18 09:16:03;;;;;;;3.72;1.70;;;;;;;14.95;73.88;98670.03;4928547;29;20138;-84
2020/12/18 09:18:31;;;;;;;4.20;1.70;;;;;;;15.27;72.04;98661.63;4943716;28;20043;-81
2020/12/18 09:21:16;;;;;;;1.85;1.10;;;;;;;15.05;72.70;98667.88;4940382;28;20047;-84
2020/12/18 09:23:46;;;;;;;1.00;1.00;;;;;;;14.73;73.54;98659.50;4936619;28;20052;-83
2020/12/18 09:26:26;;;;;;;1.00;0.90;;;;;;;15.07;72.28;98651.09;4925590;29;20047;-87
2020/12/18 09:28:54;;;;;;;1.08;0.82;;;;;;;15.12;72.25;98656.16;4925436;29;20151;-82
2020/12/18 09:31:22;;;;;;;0.85;0.85;;;;;;;15.00;72.28;98649.66;4911895;29;20062;-83
2020/12/18 09:33:49;;;;;;;1.90;0.95;;;;;;;14.99;72.47;98653.19;4926955;29;20036;-83
2020/12/18 09:36:16;;;;;;;4.50;1.05;;;;;;;15.38;70.46;98648.03;4914044;29;20052;-82
2020/12/18 09:38:53;;;;;;;2.97;0.90;;;;;;;14.81;72.58;98665.34;4934782;29;20495;-84
2020/12/18 09:41:21;;;;;;;1.50;0.75;;;;;;;15.13;71.09;98669.25;4922039;29;20056;-84
2020/12/18 09:43:49;;;;;;;4.60;1.17;;;;;;;15.02;71.46;98665.34;4925199;29;20134;-83
2020/12/18 09:46:18;;;;;;;2.63;1.40;;;;;;;15.15;71.38;98679.72;4927347;29;20425;-83
2020/12/18 09:48:47;;;;;;;1.92;1.25;;;;;;;15.35;69.83;98689.41;4924897;29;20087;-83
2020/12/18 09:51:15;;;;;;;3.15;1.50;;;;;;;15.23;70.64;98685.50;4924038;29;20807;-86
2020/12/18 09:53:43;;;;;;;2.92;1.10;;;;;;;15.40;69.53;98682.16;4936473;28;20167;-82
2020/12/18 09:56:11;;;;;;;2.03;1.00;;;;;;;15.06;71.17;98666.97;4923806;29;20046;-85
2020/12/18 09:58:38;;;;;;;2.03;1.05;;;;;;;15.20;70.23;98681.22;4937938;28;20064;-83
2020/12/18 10:01:05;;;;;;;1.58;0.90;;;;;;;15.18;69.90;98687.47;4918857;29;20723;-86
2020/12/18 10:03:32;;;;;;;1.13;0.80;;;;;;;15.07;70.26;98681.81;4936765;28;20519;-84
2020/12/18 10:05:59;;;;;;;1.50;0.80;;;;;;;15.26;70.01;98673.06;4926890;29;20536;-85
2020/12/18 10:08:25;;;;;;;1.50;0.80;;;;;;;15.19;70.10;98665.50;4942261;28;20043;-83
2020/12/18 10:10:52;;;;;;;2.55;0.82;;;;;;;15.23;69.81;98659.19;4938974;28;20067;-82
2020/12/18 10:13:18;;;;;;;2.60;1.10;;;;;;;15.72;68.24;98651.84;4944211;28;20039;-85
2020/12/18 10:15:45;;;;;;;5.03;1.05;;;;;;;15.28;69.47;98647.56;4949634;28;20043;-85
2020/12/18 10:18:11;;;;;;;4.90;0.80;;;;;;;15.53;68.59;98641.25;4932687;28;20039;-85
2020/12/18 10:20:43;;;;;;;4.70;0.98;;;;;;;15.62;68.21;98619.78;4946883;28;20058;-83
2020/12/18 10:23:12;;;;;;;6.40;0.80;;;;;;;15.39;69.06;98602.38;4932572;29;20065;-85
2020/12/18 10:25:55;;;;;;;2.90;0.90;;;;;;;15.38;69.18;98605.91;4943417;28;20127;-83
2020/12/18 10:28:21;;;;;;;4.38;0.90;;;;;;;15.31;69.74;98601.81;4931107;29;20075;-85
2020/12/18 10:30:50;;;;;;;2.47;1.10;;;;;;;15.39;69.39;98597.09;4930292;29;20051;-85
2020/12/18 10:33:17;;;;;;;2.85;0.85;;;;;;;15.28;69.73;98594.06;4930667;29;20047;-86
2020/12/18 10:35:43;;;;;;;5.10;1.00;;;;;;;15.32;69.79;98598.28;4930473;29;20043;-82
2020/12/18 10:38:10;;;;;;;3.33;0.90;;;;;;;15.15;70.49;98612.19;4928365;29;20728;-83
2020/12/18 10:40:36;;;;;;;2.75;1.05;;;;;;;15.46;69.73;98598.53;4927123;29;20078;-83
2020/12/18 10:43:03;;;;;;;2.72;1.10;;;;;;;15.14;71.09;98575.41;4913939;29;20139;-83
2020/12/18 10:45:30;;;;;;;2.22;1.05;;;;;;;15.13;71.65;98557.91;4912628;29;20050;-80
2020/12/18 10:47:56;;;;;;;3.35;0.82;;;;;;;15.24;71.09;98539.88;4930538;29;20068;-83
2020/12/18 10:50:23;;;;;;;3.72;1.05;;;;;;;14.95;72.25;98519.25;4924930;29;20051;-84
2020/12/18 10:52:51;;;;;;;4.32;1.20;;;;;;;14.98;72.44;98533.13;4923904;29;20103;-84
2020/12/18 10:55:19;;;;;;;3.92;1.20;;;;;;;14.71;72.68;98529.94;4922037;29;20092;-84
2020/12/18 10:57:46;;;;;;;6.75;1.27;;;;;;;14.83;72.75;98533.78;4930599;29;20073;-87
2020/12/18 11:00:13;;;;;;;4.35;1.08;;;;;;;14.99;72.56;98516.44;4928609;29;20503;-85
2020/12/18 11:02:41;;;;;;;2.15;1.00;;;;;;;14.98;72.33;98522.59;4932145;29;20040;-84
2020/12/18 11:05:08;;;;;;;2.40;0.80;;;;;;;15.12;72.11;98500.94;4912826;29;20056;-83
2020/12/18 11:07:41;;;;;;;3.58;0.90;;;;;;;14.65;73.54;98498.63;4928449;29;20055;-84
2020/12/18 11:10:08;;;;;;;1.10;0.52;;;;;;;14.70;73.64;98498.44;4921364;29;20059;-84
2020/12/18 11:12:34;;;;;;;2.72;1.08;;;;;;;15.13;72.29;98497.41;4934550;29;20495;-85
2020/12/18 11:15:01;;;;;;;5.43;1.08;;;;;;;15.30;72.06;98486.97;4922527;29;20052;-78
2020/12/18 11:17:28;;;;;;;3.28;1.00;;;;;;;15.34;72.25;98475.41;4942195;28;20043;-80
2020/12/18 11:19:55;;;;;;;5.28;1.10;;;;;;;14.57;74.09;98489.38;4937199;28;20040;-80
2020/12/18 11:22:25;;;;;;;3.38;1.23;;;;;;;15.16;72.33;98484.09;4911979;29;20071;-80
2020/12/18 11:24:51;;;;;;;2.08;0.80;;;;;;;15.00;72.66;98486.59;4929092;29;20058;-83
2020/12/18 11:27:23;;;;;;;2.25;0.80;;;;;;;14.92;73.17;98474.66;4928044;29;20474;-79
2020/12/18 11:29:50;;;;;;;1.95;0.90;;;;;;;14.83;73.38;98489.09;4933145;28;20115;-79
2020/12/18 11:32:18;;;;;;;1.92;0.45;;;;;;;14.88;72.70;98487.09;4924752;29;20048;-82
2020/12/18 11:34:44;;;;;;;0.43;0.35;;;;;;;15.05;71.97;98502.16;4927043;29;20754;-81
2020/12/18 11:37:11;;;;;;;5.95;0.50;;;;;;;15.47;70.79;98517.78;4928586;29;20412;-80
2020/12/18 11:39:39;;;;;;;1.85;0.73;;;;;;;15.17;71.88;98512.97;4926275;29;20567;-81
2020/12/18 11:42:06;;;;;;;0.93;0.30;;;;;;;14.96;71.44;98502.56;4907959;29;20055;-83
2020/12/18 11:44:32;;;;;;;1.85;0.70;;;;;;;15.01;72.23;98493.53;4930451;29;20522;-84
2020/12/18 11:46:59;;;;;;;0.75;0.57;;;;;;;14.86;72.61;98514.41;4917239;29;20040;-85
2020/12/18 11:49:26;;;;;;;2.53;0.65;;;;;;;15.13;72.13;98506.16;4942155;28;20051;-82
2020/12/18 11:51:52;;;;;;;2.15;0.30;;;;;;;15.03;72.23;98502.22;4933601;29;20769;-83
2020/12/18 11:54:19;;;;;;;2.20;0.60;;;;;;;14.38;74.68;98498.03;4948364;28;20134;-83
2020/12/18 11:56:50;;;;;;;2.13;0.98;;;;;;;14.97;73.17;98518.25;4930373;29;20064;-85
2020/12/18 11:59:17;;;;;;;1.58;0.40;;;;;;;14.85;73.35;98521.44;4926692;29;20043;-82
2020/12/18 12:01:46;;;;;;;0.98;0.50;;;;;;;14.63;73.89;98508.34;4927256;29;20039;-82
2020/12/18 12:04:12;;;;;;;1.48;0.70;;;;;;;14.83;73.13;98508.34;4934126;28;20036;-82
2020/12/18 12:06:41;;;;;;;4.03;0.63;;;;;;;15.11;72.56;98509.75;4926086;29;20066;-85